sensor_id;sensor_type;location;lat;lon;timestamp;P1;durP1;ratioP1;P2;durP2;ratioP2
39098;SDS011;24844;52.380;7.018;2023-06-24T00:01:27;12.52;;;10.55;;
39098;SDS011;24844;52.380;7.018;2023-06-24T00:03:53;12.07;;;10.77;;
39098;SDS011;24844;52.380;7.018;2023-06-24T00:06:19;11.90;;;10.75;;
39098;SDS011;24844;52.380;7.018;2023-06-24T00:08:47;11.67;;;10.57;;
39098;SDS011;24844;52.380;7.018;2023-06-24T00:11:14;12.63;;;11.43;;
39098;SDS011;24844;52.380;7.018;2023-06-24T00:13:40;13.77;;;12.10;;
39098;SDS011;24844;52.380;7.018;2023-06-24T00:16:06;13.10;;;11.73;;
39098;SDS011;24844;52.380;7.018;2023-06-24T00:18:32;13.23;;;11.32;;
39098;SDS011;24844;52.380;7.018;2023-06-24T00:20:58;13.88;;;12.15;;
39098;SDS011;24844;52.380;7.018;2023-06-24T00:23:26;15.00;;;11.90;;
39098;SDS011;24844;52.380;7.018;2023-06-24T00:25:53;16.67;;;12.35;;
39098;SDS011;24844;52.380;7.018;2023-06-24T00:28:19;13.85;;;12.10;;
39098;SDS011;24844;52.380;7.018;2023-06-24T00:30:46;13.93;;;12.52;;
39098;SDS011;24844;52.380;7.018;2023-06-24T00:33:12;19.17;;;12.63;;
39098;SDS011;24844;52.380;7.018;2023-06-24T00:35:39;13.93;;;11.85;;
39098;SDS011;24844;52.380;7.018;2023-06-24T00:38:05;19.15;;;12.27;;
39098;SDS011;24844;52.380;7.018;2023-06-24T00:40:31;14.15;;;12.20;;
39098;SDS011;24844;52.380;7.018;2023-06-24T00:42:57;16.30;;;13.13;;
39098;SDS011;24844;52.380;7.018;2023-06-24T00:45:23;13.55;;;12.05;;
39098;SDS011;24844;52.380;7.018;2023-06-24T00:47:49;13.27;;;11.88;;
39098;SDS011;24844;52.380;7.018;2023-06-24T00:50:16;14.05;;;12.55;;
39098;SDS011;24844;52.380;7.018;2023-06-24T00:52:42;13.73;;;12.27;;
39098;SDS011;24844;52.380;7.018;2023-06-24T00:55:08;13.52;;;12.13;;
39098;SDS011;24844;52.380;7.018;2023-06-24T00:57:37;14.60;;;13.07;;
39098;SDS011;24844;52.380;7.018;2023-06-24T01:00:07;14.38;;;12.32;;
39098;SDS011;24844;52.380;7.018;2023-06-24T01:02:39;14.20;;;12.80;;
39098;SDS011;24844;52.380;7.018;2023-06-24T01:05:07;17.63;;;12.45;;
39098;SDS011;24844;52.380;7.018;2023-06-24T01:07:33;19.08;;;14.60;;
39098;SDS011;24844;52.380;7.018;2023-06-24T01:10:02;13.98;;;12.45;;
39098;SDS011;24844;52.380;7.018;2023-06-24T01:12:33;15.23;;;12.82;;
39098;SDS011;24844;52.380;7.018;2023-06-24T01:15:00;14.88;;;12.65;;
39098;SDS011;24844;52.380;7.018;2023-06-24T01:17:29;19.95;;;12.80;;
39098;SDS011;24844;52.380;7.018;2023-06-24T01:20:04;16.13;;;13.70;;
39098;SDS011;24844;52.380;7.018;2023-06-24T01:30:34;13.43;;;11.80;;
39098;SDS011;24844;52.380;7.018;2023-06-24T01:33:20;16.40;;;12.27;;
39098;SDS011;24844;52.380;7.018;2023-06-24T01:35:50;15.68;;;13.05;;
39098;SDS011;24844;52.380;7.018;2023-06-24T01:38:31;19.00;;;13.60;;
39098;SDS011;24844;52.380;7.018;2023-06-24T01:43:31;16.50;;;12.85;;
39098;SDS011;24844;52.380;7.018;2023-06-24T01:45:58;10.57;;;9.48;;
39098;SDS011;24844;52.380;7.018;2023-06-24T01:48:27;18.55;;;15.55;;
39098;SDS011;24844;52.380;7.018;2023-06-24T01:51:01;17.83;;;15.93;;
39098;SDS011;24844;52.380;7.018;2023-06-24T01:53:34;21.10;;;14.50;;
39098;SDS011;24844;52.380;7.018;2023-06-24T01:56:01;19.83;;;15.05;;
39098;SDS011;24844;52.380;7.018;2023-06-24T01:58:28;23.10;;;17.73;;
39098;SDS011;24844;52.380;7.018;2023-06-24T02:00:57;21.40;;;17.15;;
39098;SDS011;24844;52.380;7.018;2023-06-24T02:03:23;20.05;;;16.48;;
39098;SDS011;24844;52.380;7.018;2023-06-24T02:05:50;19.40;;;16.17;;
39098;SDS011;24844;52.380;7.018;2023-06-24T02:08:18;21.95;;;16.40;;
39098;SDS011;24844;52.380;7.018;2023-06-24T02:10:46;16.48;;;14.77;;
39098;SDS011;24844;52.380;7.018;2023-06-24T02:13:12;17.48;;;15.35;;
39098;SDS011;24844;52.380;7.018;2023-06-24T02:15:39;20.10;;;17.75;;
39098;SDS011;24844;52.380;7.018;2023-06-24T02:18:06;20.90;;;16.67;;
39098;SDS011;24844;52.380;7.018;2023-06-24T02:20:34;20.95;;;16.48;;
39098;SDS011;24844;52.380;7.018;2023-06-24T02:23:01;20.33;;;16.15;;
39098;SDS011;24844;52.380;7.018;2023-06-24T02:25:29;21.73;;;15.73;;
39098;SDS011;24844;52.380;7.018;2023-06-24T02:27:56;19.17;;;16.08;;
39098;SDS011;24844;52.380;7.018;2023-06-24T02:30:22;19.30;;;16.45;;
39098;SDS011;24844;52.380;7.018;2023-06-24T02:32:49;19.35;;;16.67;;
39098;SDS011;24844;52.380;7.018;2023-06-24T02:35:15;19.73;;;15.32;;
39098;SDS011;24844;52.380;7.018;2023-06-24T02:37:40;21.50;;;16.23;;
39098;SDS011;24844;52.380;7.018;2023-06-24T02:40:07;19.75;;;16.25;;
39098;SDS011;24844;52.380;7.018;2023-06-24T02:42:33;19.80;;;15.02;;
39098;SDS011;24844;52.380;7.018;2023-06-24T02:44:59;17.02;;;15.02;;
39098;SDS011;24844;52.380;7.018;2023-06-24T02:47:25;17.10;;;15.30;;
39098;SDS011;24844;52.380;7.018;2023-06-24T02:49:51;17.95;;;15.00;;
39098;SDS011;24844;52.380;7.018;2023-06-24T02:52:18;17.60;;;15.63;;
39098;SDS011;24844;52.380;7.018;2023-06-24T02:54:44;20.27;;;15.60;;
39098;SDS011;24844;52.380;7.018;2023-06-24T02:57:10;19.60;;;14.77;;
39098;SDS011;24844;52.380;7.018;2023-06-24T02:59:40;18.55;;;15.57;;
39098;SDS011;24844;52.380;7.018;2023-06-24T03:02:06;17.10;;;14.15;;
39098;SDS011;24844;52.380;7.018;2023-06-24T03:04:32;17.98;;;14.48;;
39098;SDS011;24844;52.380;7.018;2023-06-24T03:07:00;15.70;;;13.13;;
39098;SDS011;24844;52.380;7.018;2023-06-24T03:09:27;20.23;;;15.20;;
39098;SDS011;24844;52.380;7.018;2023-06-24T03:11:53;16.20;;;14.50;;
39098;SDS011;24844;52.380;7.018;2023-06-24T03:14:18;18.08;;;14.50;;
39098;SDS011;24844;52.380;7.018;2023-06-24T03:16:44;18.45;;;14.93;;
39098;SDS011;24844;52.380;7.018;2023-06-24T03:19:10;17.45;;;15.52;;
39098;SDS011;24844;52.380;7.018;2023-06-24T03:21:36;18.35;;;14.82;;
39098;SDS011;24844;52.380;7.018;2023-06-24T03:24:01;16.17;;;14.10;;
39098;SDS011;24844;52.380;7.018;2023-06-24T03:26:37;19.02;;;14.43;;
39098;SDS011;24844;52.380;7.018;2023-06-24T03:29:03;16.02;;;14.18;;
39098;SDS011;24844;52.380;7.018;2023-06-24T03:31:30;15.70;;;13.40;;
39098;SDS011;24844;52.380;7.018;2023-06-24T03:33:55;13.88;;;12.35;;
39098;SDS011;24844;52.380;7.018;2023-06-24T03:36:21;14.23;;;12.73;;
39098;SDS011;24844;52.380;7.018;2023-06-24T03:38:47;17.95;;;13.73;;
39098;SDS011;24844;52.380;7.018;2023-06-24T03:41:14;15.40;;;12.90;;
39098;SDS011;24844;52.380;7.018;2023-06-24T03:43:39;16.38;;;13.05;;
39098;SDS011;24844;52.380;7.018;2023-06-24T03:46:06;16.33;;;13.65;;
39098;SDS011;24844;52.380;7.018;2023-06-24T03:48:32;17.98;;;13.73;;
39098;SDS011;24844;52.380;7.018;2023-06-24T03:50:58;16.35;;;14.63;;
39098;SDS011;24844;52.380;7.018;2023-06-24T03:53:24;17.75;;;13.82;;
39098;SDS011;24844;52.380;7.018;2023-06-24T03:55:49;16.23;;;12.18;;
39098;SDS011;24844;52.380;7.018;2023-06-24T03:58:15;15.73;;;13.23;;
39098;SDS011;24844;52.380;7.018;2023-06-24T04:00:41;14.18;;;12.52;;
39098;SDS011;24844;52.380;7.018;2023-06-24T04:03:09;15.57;;;12.45;;
39098;SDS011;24844;52.380;7.018;2023-06-24T04:05:35;13.23;;;11.88;;
39098;SDS011;24844;52.380;7.018;2023-06-24T04:08:01;13.70;;;11.85;;
39098;SDS011;24844;52.380;7.018;2023-06-24T04:10:30;12.35;;;10.82;;
39098;SDS011;24844;52.380;7.018;2023-06-24T04:12:57;12.00;;;10.65;;
39098;SDS011;24844;52.380;7.018;2023-06-24T04:15:22;12.55;;;11.25;;
39098;SDS011;24844;52.380;7.018;2023-06-24T04:17:48;14.05;;;12.55;;
39098;SDS011;24844;52.380;7.018;2023-06-24T04:20:14;14.38;;;12.82;;
39098;SDS011;24844;52.380;7.018;2023-06-24T04:22:40;13.80;;;11.90;;
39098;SDS011;24844;52.380;7.018;2023-06-24T04:25:06;13.13;;;11.68;;
39098;SDS011;24844;52.380;7.018;2023-06-24T04:27:33;15.00;;;11.85;;
39098;SDS011;24844;52.380;7.018;2023-06-24T04:29:59;14.48;;;12.13;;
39098;SDS011;24844;52.380;7.018;2023-06-24T04:32:25;19.77;;;13.10;;
39098;SDS011;24844;52.380;7.018;2023-06-24T04:34:51;15.05;;;12.57;;
39098;SDS011;24844;52.380;7.018;2023-06-24T04:37:17;17.63;;;12.68;;
39098;SDS011;24844;52.380;7.018;2023-06-24T04:39:43;14.48;;;12.27;;
39098;SDS011;24844;52.380;7.018;2023-06-24T04:42:09;14.27;;;12.32;;
39098;SDS011;24844;52.380;7.018;2023-06-24T04:44:36;13.80;;;11.15;;
39098;SDS011;24844;52.380;7.018;2023-06-24T04:47:02;16.42;;;13.02;;
39098;SDS011;24844;52.380;7.018;2023-06-24T04:49:28;14.48;;;12.15;;
39098;SDS011;24844;52.380;7.018;2023-06-24T04:51:54;13.95;;;12.40;;
39098;SDS011;24844;52.380;7.018;2023-06-24T04:54:19;14.85;;;12.55;;
39098;SDS011;24844;52.380;7.018;2023-06-24T04:56:45;21.08;;;13.48;;
39098;SDS011;24844;52.380;7.018;2023-06-24T04:59:13;15.32;;;13.65;;
39098;SDS011;24844;52.380;7.018;2023-06-24T05:01:39;13.95;;;12.52;;
39098;SDS011;24844;52.380;7.018;2023-06-24T05:04:04;14.93;;;13.23;;
39098;SDS011;24844;52.380;7.018;2023-06-24T05:06:30;11.68;;;10.48;;
39098;SDS011;24844;52.380;7.018;2023-06-24T05:08:56;17.30;;;12.57;;
39098;SDS011;24844;52.380;7.018;2023-06-24T05:11:21;12.85;;;10.68;;
39098;SDS011;24844;52.380;7.018;2023-06-24T05:13:47;12.82;;;11.52;;
39098;SDS011;24844;52.380;7.018;2023-06-24T05:16:13;11.32;;;10.20;;
39098;SDS011;24844;52.380;7.018;2023-06-24T05:18:38;12.82;;;10.13;;
39098;SDS011;24844;52.380;7.018;2023-06-24T05:21:04;12.77;;;9.95;;
39098;SDS011;24844;52.380;7.018;2023-06-24T05:23:29;10.80;;;9.63;;
39098;SDS011;24844;52.380;7.018;2023-06-24T05:25:55;10.35;;;9.25;;
39098;SDS011;24844;52.380;7.018;2023-06-24T05:28:21;12.73;;;11.32;;
39098;SDS011;24844;52.380;7.018;2023-06-24T05:30:46;11.52;;;9.10;;
39098;SDS011;24844;52.380;7.018;2023-06-24T05:33:12;11.30;;;9.55;;
39098;SDS011;24844;52.380;7.018;2023-06-24T05:35:38;13.43;;;11.05;;
39098;SDS011;24844;52.380;7.018;2023-06-24T05:38:05;11.88;;;10.68;;
39098;SDS011;24844;52.380;7.018;2023-06-24T05:40:31;15.85;;;10.02;;
39098;SDS011;24844;52.380;7.018;2023-06-24T05:42:57;12.43;;;9.85;;
39098;SDS011;24844;52.380;7.018;2023-06-24T05:45:22;12.07;;;10.38;;
39098;SDS011;24844;52.380;7.018;2023-06-24T05:47:48;12.15;;;9.95;;
39098;SDS011;24844;52.380;7.018;2023-06-24T05:50:14;11.95;;;10.70;;
39098;SDS011;24844;52.380;7.018;2023-06-24T05:52:39;12.48;;;10.80;;
39098;SDS011;24844;52.380;7.018;2023-06-24T05:55:05;11.23;;;9.95;;
39098;SDS011;24844;52.380;7.018;2023-06-24T05:57:31;7.75;;;6.95;;
39098;SDS011;24844;52.380;7.018;2023-06-24T05:59:56;13.40;;;9.73;;
39098;SDS011;24844;52.380;7.018;2023-06-24T06:02:22;11.93;;;9.68;;
39098;SDS011;24844;52.380;7.018;2023-06-24T06:04:47;9.50;;;8.45;;
39098;SDS011;24844;52.380;7.018;2023-06-24T06:07:14;9.70;;;8.00;;
39098;SDS011;24844;52.380;7.018;2023-06-24T06:09:40;9.15;;;8.15;;
39098;SDS011;24844;52.380;7.018;2023-06-24T06:12:06;10.68;;;8.57;;
39098;SDS011;24844;52.380;7.018;2023-06-24T06:14:32;8.45;;;7.65;;
39098;SDS011;24844;52.380;7.018;2023-06-24T06:16:57;14.25;;;9.60;;
39098;SDS011;24844;52.380;7.018;2023-06-24T06:19:23;11.68;;;9.23;;
39098;SDS011;24844;52.380;7.018;2023-06-24T06:21:49;10.07;;;8.65;;
39098;SDS011;24844;52.380;7.018;2023-06-24T06:24:16;9.90;;;8.90;;
39098;SDS011;24844;52.380;7.018;2023-06-24T06:26:42;10.98;;;9.02;;
39098;SDS011;24844;52.380;7.018;2023-06-24T06:29:08;14.35;;;9.13;;
39098;SDS011;24844;52.380;7.018;2023-06-24T06:31:35;9.07;;;8.13;;
39098;SDS011;24844;52.380;7.018;2023-06-24T06:34:01;8.88;;;7.30;;
39098;SDS011;24844;52.380;7.018;2023-06-24T06:36:27;13.05;;;7.70;;
39098;SDS011;24844;52.380;7.018;2023-06-24T06:38:52;7.97;;;7.18;;
39098;SDS011;24844;52.380;7.018;2023-06-24T06:41:18;8.82;;;7.63;;
39098;SDS011;24844;52.380;7.018;2023-06-24T06:43:49;7.80;;;6.88;;
39098;SDS011;24844;52.380;7.018;2023-06-24T06:46:18;11.40;;;6.95;;
39098;SDS011;24844;52.380;7.018;2023-06-24T06:48:44;9.40;;;7.00;;
39098;SDS011;24844;52.380;7.018;2023-06-24T06:51:10;7.20;;;5.13;;
39098;SDS011;24844;52.380;7.018;2023-06-24T06:53:35;10.20;;;6.78;;
39098;SDS011;24844;52.380;7.018;2023-06-24T06:56:01;8.82;;;6.50;;
39098;SDS011;24844;52.380;7.018;2023-06-24T06:58:27;6.10;;;5.50;;
39098;SDS011;24844;52.380;7.018;2023-06-24T07:00:52;6.88;;;5.68;;
39098;SDS011;24844;52.380;7.018;2023-06-24T07:03:18;5.97;;;5.32;;
39098;SDS011;24844;52.380;7.018;2023-06-24T07:05:44;5.70;;;4.70;;
39098;SDS011;24844;52.380;7.018;2023-06-24T07:08:09;6.50;;;5.50;;
39098;SDS011;24844;52.380;7.018;2023-06-24T07:10:35;6.72;;;5.60;;
39098;SDS011;24844;52.380;7.018;2023-06-24T07:13:01;6.20;;;5.60;;
39098;SDS011;24844;52.380;7.018;2023-06-24T07:15:26;5.63;;;5.00;;
39098;SDS011;24844;52.380;7.018;2023-06-24T07:17:52;7.82;;;6.07;;
39098;SDS011;24844;52.380;7.018;2023-06-24T07:20:18;7.25;;;5.40;;
39098;SDS011;24844;52.380;7.018;2023-06-24T07:22:45;6.95;;;5.55;;
39098;SDS011;24844;52.380;7.018;2023-06-24T07:25:11;8.98;;;6.55;;
39098;SDS011;24844;52.380;7.018;2023-06-24T07:27:37;5.13;;;4.63;;
39098;SDS011;24844;52.380;7.018;2023-06-24T07:30:03;6.75;;;5.13;;
39098;SDS011;24844;52.380;7.018;2023-06-24T07:32:31;5.00;;;4.53;;
39098;SDS011;24844;52.380;7.018;2023-06-24T07:34:57;7.53;;;5.53;;
39098;SDS011;24844;52.380;7.018;2023-06-24T07:37:22;5.72;;;4.35;;
39098;SDS011;24844;52.380;7.018;2023-06-24T07:39:48;6.63;;;4.50;;
39098;SDS011;24844;52.380;7.018;2023-06-24T07:42:14;9.70;;;6.18;;
39098;SDS011;24844;52.380;7.018;2023-06-24T07:44:44;5.25;;;4.75;;
39098;SDS011;24844;52.380;7.018;2023-06-24T07:47:10;7.63;;;4.50;;
39098;SDS011;24844;52.380;7.018;2023-06-24T07:49:36;6.38;;;4.45;;
39098;SDS011;24844;52.380;7.018;2023-06-24T07:52:02;9.07;;;4.90;;
39098;SDS011;24844;52.380;7.018;2023-06-24T07:54:27;6.57;;;4.78;;
39098;SDS011;24844;52.380;7.018;2023-06-24T07:56:53;7.80;;;5.05;;
39098;SDS011;24844;52.380;7.018;2023-06-24T07:59:19;4.85;;;4.10;;
39098;SDS011;24844;52.380;7.018;2023-06-24T08:01:44;8.93;;;4.80;;
39098;SDS011;24844;52.380;7.018;2023-06-24T08:04:10;5.60;;;4.80;;
39098;SDS011;24844;52.380;7.018;2023-06-24T08:06:35;6.28;;;4.40;;
39098;SDS011;24844;52.380;7.018;2023-06-24T08:09:01;6.55;;;4.40;;
39098;SDS011;24844;52.380;7.018;2023-06-24T08:11:26;6.60;;;5.05;;
39098;SDS011;24844;52.380;7.018;2023-06-24T08:13:52;5.90;;;4.20;;
39098;SDS011;24844;52.380;7.018;2023-06-24T08:16:18;4.53;;;3.70;;
39098;SDS011;24844;52.380;7.018;2023-06-24T08:18:45;5.33;;;4.70;;
39098;SDS011;24844;52.380;7.018;2023-06-24T08:21:11;4.40;;;4.00;;
39098;SDS011;24844;52.380;7.018;2023-06-24T08:23:37;4.32;;;3.58;;
39098;SDS011;24844;52.380;7.018;2023-06-24T08:26:02;6.55;;;4.28;;
39098;SDS011;24844;52.380;7.018;2023-06-24T08:28:28;7.93;;;4.65;;
39098;SDS011;24844;52.380;7.018;2023-06-24T08:30:54;5.22;;;4.40;;
39098;SDS011;24844;52.380;7.018;2023-06-24T08:33:19;9.05;;;4.50;;
39098;SDS011;24844;52.380;7.018;2023-06-24T08:35:45;6.63;;;4.47;;
39098;SDS011;24844;52.380;7.018;2023-06-24T08:38:10;5.40;;;4.38;;
39098;SDS011;24844;52.380;7.018;2023-06-24T08:40:36;4.45;;;3.80;;
39098;SDS011;24844;52.380;7.018;2023-06-24T08:43:05;7.00;;;4.63;;
39098;SDS011;24844;52.380;7.018;2023-06-24T08:45:31;7.32;;;4.55;;
39098;SDS011;24844;52.380;7.018;2023-06-24T08:47:57;7.47;;;5.10;;
39098;SDS011;24844;52.380;7.018;2023-06-24T08:50:27;6.22;;;4.80;;
39098;SDS011;24844;52.380;7.018;2023-06-24T08:52:59;8.50;;;5.28;;
39098;SDS011;24844;52.380;7.018;2023-06-24T08:55:31;10.07;;;6.00;;
39098;SDS011;24844;52.380;7.018;2023-06-24T08:58:00;6.28;;;5.28;;
39098;SDS011;24844;52.380;7.018;2023-06-24T09:00:26;7.15;;;5.50;;
39098;SDS011;24844;52.380;7.018;2023-06-24T09:02:52;6.32;;;4.80;;
39098;SDS011;24844;52.380;7.018;2023-06-24T09:05:17;9.20;;;5.45;;
39098;SDS011;24844;52.380;7.018;2023-06-24T09:07:43;5.47;;;4.35;;
39098;SDS011;24844;52.380;7.018;2023-06-24T09:10:08;8.18;;;5.78;;
39098;SDS011;24844;52.380;7.018;2023-06-24T09:12:34;7.90;;;4.88;;
39098;SDS011;24844;52.380;7.018;2023-06-24T09:15:00;4.80;;;3.20;;
39098;SDS011;24844;52.380;7.018;2023-06-24T09:19:53;6.57;;;4.60;;
39098;SDS011;24844;52.380;7.018;2023-06-24T09:22:30;6.70;;;4.78;;
39098;SDS011;24844;52.380;7.018;2023-06-24T09:25:00;8.30;;;6.00;;
39098;SDS011;24844;52.380;7.018;2023-06-24T09:27:30;7.05;;;4.45;;
39098;SDS011;24844;52.380;7.018;2023-06-24T09:29:56;4.88;;;4.35;;
39098;SDS011;24844;52.380;7.018;2023-06-24T09:32:26;6.35;;;5.38;;
39098;SDS011;24844;52.380;7.018;2023-06-24T09:34:54;6.28;;;4.78;;
39098;SDS011;24844;52.380;7.018;2023-06-24T09:37:23;5.60;;;4.28;;
39098;SDS011;24844;52.380;7.018;2023-06-24T09:39:52;12.80;;;6.05;;
39098;SDS011;24844;52.380;7.018;2023-06-24T09:42:20;6.35;;;5.38;;
39098;SDS011;24844;52.380;7.018;2023-06-24T09:44:52;5.38;;;4.35;;
39098;SDS011;24844;52.380;7.018;2023-06-24T09:47:20;10.65;;;6.60;;
39098;SDS011;24844;52.380;7.018;2023-06-24T09:49:50;5.55;;;4.57;;
39098;SDS011;24844;52.380;7.018;2023-06-24T09:52:16;6.77;;;6.00;;
39098;SDS011;24844;52.380;7.018;2023-06-24T09:54:45;9.18;;;7.00;;
39098;SDS011;24844;52.380;7.018;2023-06-24T09:57:15;6.82;;;5.32;;
39098;SDS011;24844;52.380;7.018;2023-06-24T09:59:45;9.57;;;6.72;;
39098;SDS011;24844;52.380;7.018;2023-06-24T10:02:12;6.50;;;4.47;;
39098;SDS011;24844;52.380;7.018;2023-06-24T10:04:40;6.80;;;5.72;;
39098;SDS011;24844;52.380;7.018;2023-06-24T10:07:06;7.38;;;6.18;;
39098;SDS011;24844;52.380;7.018;2023-06-24T10:09:32;5.65;;;5.07;;
39098;SDS011;24844;52.380;7.018;2023-06-24T10:11:58;5.40;;;4.65;;
39098;SDS011;24844;52.380;7.018;2023-06-24T10:14:24;10.77;;;5.85;;
39098;SDS011;24844;52.380;7.018;2023-06-24T10:16:49;8.63;;;5.72;;
39098;SDS011;24844;52.380;7.018;2023-06-24T10:19:18;9.82;;;6.43;;
39098;SDS011;24844;52.380;7.018;2023-06-24T10:21:50;7.15;;;4.72;;
39098;SDS011;24844;52.380;7.018;2023-06-24T10:24:33;8.30;;;6.43;;
39098;SDS011;24844;52.380;7.018;2023-06-24T10:27:04;6.90;;;6.00;;
39098;SDS011;24844;52.380;7.018;2023-06-24T10:29:36;6.32;;;5.72;;
39098;SDS011;24844;52.380;7.018;2023-06-24T10:32:11;6.10;;;4.78;;
39098;SDS011;24844;52.380;7.018;2023-06-24T10:37:09;8.00;;;5.35;;
39098;SDS011;24844;52.380;7.018;2023-06-24T10:39:38;5.18;;;3.83;;
39098;SDS011;24844;52.380;7.018;2023-06-24T10:44:58;5.40;;;3.80;;
39098;SDS011;24844;52.380;7.018;2023-06-24T10:47:25;8.25;;;5.68;;
39098;SDS011;24844;52.380;7.018;2023-06-24T10:49:52;9.20;;;5.90;;
39098;SDS011;24844;52.380;7.018;2023-06-24T10:52:18;5.80;;;4.90;;
39098;SDS011;24844;52.380;7.018;2023-06-24T10:54:48;4.47;;;3.50;;
39098;SDS011;24844;52.380;7.018;2023-06-24T10:57:15;3.95;;;3.55;;
39098;SDS011;24844;52.380;7.018;2023-06-24T10:59:48;10.05;;;5.75;;
39098;SDS011;24844;52.380;7.018;2023-06-24T11:02:17;6.60;;;4.75;;
39098;SDS011;24844;52.380;7.018;2023-06-24T11:04:47;5.63;;;3.78;;
39098;SDS011;24844;52.380;7.018;2023-06-24T11:07:17;4.38;;;3.63;;
39098;SDS011;24844;52.380;7.018;2023-06-24T11:09:50;7.65;;;4.72;;
39098;SDS011;24844;52.380;7.018;2023-06-24T11:12:17;6.43;;;4.45;;
39098;SDS011;24844;52.380;7.018;2023-06-24T11:14:44;5.00;;;3.80;;
39098;SDS011;24844;52.380;7.018;2023-06-24T11:17:10;4.60;;;4.15;;
39098;SDS011;24844;52.380;7.018;2023-06-24T11:19:36;4.60;;;3.40;;
39098;SDS011;24844;52.380;7.018;2023-06-24T11:22:04;5.85;;;3.70;;
39098;SDS011;24844;52.380;7.018;2023-06-24T11:24:31;4.18;;;3.42;;
39098;SDS011;24844;52.380;7.018;2023-06-24T11:26:57;5.60;;;3.20;;
39098;SDS011;24844;52.380;7.018;2023-06-24T11:29:24;3.30;;;3.00;;
39098;SDS011;24844;52.380;7.018;2023-06-24T11:31:53;5.05;;;3.53;;
39098;SDS011;24844;52.380;7.018;2023-06-24T11:34:18;5.95;;;4.25;;
39098;SDS011;24844;52.380;7.018;2023-06-24T11:36:44;4.00;;;3.40;;
39098;SDS011;24844;52.380;7.018;2023-06-24T11:39:20;3.55;;;3.25;;
39098;SDS011;24844;52.380;7.018;2023-06-24T11:41:57;4.15;;;3.63;;
39098;SDS011;24844;52.380;7.018;2023-06-24T11:44:26;4.00;;;3.28;;
39098;SDS011;24844;52.380;7.018;2023-06-24T11:46:51;4.30;;;3.70;;
39098;SDS011;24844;52.380;7.018;2023-06-24T11:49:18;3.80;;;3.35;;
39098;SDS011;24844;52.380;7.018;2023-06-24T11:51:50;4.18;;;3.20;;
39098;SDS011;24844;52.380;7.018;2023-06-24T11:54:20;4.28;;;2.88;;
39098;SDS011;24844;52.380;7.018;2023-06-24T11:56:49;4.10;;;3.70;;
39098;SDS011;24844;52.380;7.018;2023-06-24T11:59:22;3.55;;;3.00;;
39098;SDS011;24844;52.380;7.018;2023-06-24T12:01:55;4.18;;;2.90;;
39098;SDS011;24844;52.380;7.018;2023-06-24T12:04:32;2.95;;;2.60;;
39098;SDS011;24844;52.380;7.018;2023-06-24T12:07:00;3.20;;;2.90;;
39098;SDS011;24844;52.380;7.018;2023-06-24T12:09:26;4.57;;;2.90;;
39098;SDS011;24844;52.380;7.018;2023-06-24T12:11:57;2.80;;;2.50;;
39098;SDS011;24844;52.380;7.018;2023-06-24T12:14:23;4.80;;;3.03;;
39098;SDS011;24844;52.380;7.018;2023-06-24T12:16:48;2.72;;;2.45;;
39098;SDS011;24844;52.380;7.018;2023-06-24T12:19:14;3.65;;;2.53;;
39098;SDS011;24844;52.380;7.018;2023-06-24T12:21:40;5.30;;;2.90;;
39098;SDS011;24844;52.380;7.018;2023-06-24T12:24:05;4.72;;;2.50;;
39098;SDS011;24844;52.380;7.018;2023-06-24T12:26:31;3.05;;;2.65;;
39098;SDS011;24844;52.380;7.018;2023-06-24T12:28:57;3.28;;;2.38;;
39098;SDS011;24844;52.380;7.018;2023-06-24T12:31:23;3.58;;;2.83;;
39098;SDS011;24844;52.380;7.018;2023-06-24T12:33:50;2.83;;;2.40;;
39098;SDS011;24844;52.380;7.018;2023-06-24T12:36:16;3.28;;;2.50;;
39098;SDS011;24844;52.380;7.018;2023-06-24T12:38:42;2.67;;;2.35;;
39098;SDS011;24844;52.380;7.018;2023-06-24T12:41:07;3.75;;;2.55;;
39098;SDS011;24844;52.380;7.018;2023-06-24T12:43:33;2.72;;;2.40;;
39098;SDS011;24844;52.380;7.018;2023-06-24T12:45:58;2.53;;;2.25;;
39098;SDS011;24844;52.380;7.018;2023-06-24T12:48:24;3.38;;;2.47;;
39098;SDS011;24844;52.380;7.018;2023-06-24T12:50:50;3.08;;;2.30;;
39098;SDS011;24844;52.380;7.018;2023-06-24T12:55:44;2.88;;;2.33;;
39098;SDS011;24844;52.380;7.018;2023-06-24T12:58:09;3.72;;;2.42;;
39098;SDS011;24844;52.380;7.018;2023-06-24T13:00:35;5.57;;;2.60;;
39098;SDS011;24844;52.380;7.018;2023-06-24T13:03:01;3.30;;;2.67;;
39098;SDS011;24844;52.380;7.018;2023-06-24T13:05:26;5.07;;;2.80;;
39098;SDS011;24844;52.380;7.018;2023-06-24T13:07:52;2.58;;;2.38;;
39098;SDS011;24844;52.380;7.018;2023-06-24T13:10:17;5.10;;;2.70;;
39098;SDS011;24844;52.380;7.018;2023-06-24T13:12:43;3.47;;;2.67;;
39098;SDS011;24844;52.380;7.018;2023-06-24T13:15:09;3.03;;;2.58;;
39098;SDS011;24844;52.380;7.018;2023-06-24T13:17:35;3.47;;;2.35;;
39098;SDS011;24844;52.380;7.018;2023-06-24T13:20:01;3.47;;;2.72;;
39098;SDS011;24844;52.380;7.018;2023-06-24T13:22:29;3.67;;;2.47;;
39098;SDS011;24844;52.380;7.018;2023-06-24T13:24:55;3.83;;;2.25;;
39098;SDS011;24844;52.380;7.018;2023-06-24T13:27:21;3.17;;;2.70;;
39098;SDS011;24844;52.380;7.018;2023-06-24T13:29:47;4.18;;;2.55;;
39098;SDS011;24844;52.380;7.018;2023-06-24T13:32:12;3.08;;;2.15;;
39098;SDS011;24844;52.380;7.018;2023-06-24T13:34:38;3.15;;;2.53;;
39098;SDS011;24844;52.380;7.018;2023-06-24T13:37:04;3.75;;;2.33;;
39098;SDS011;24844;52.380;7.018;2023-06-24T13:39:30;4.10;;;2.15;;
39098;SDS011;24844;52.380;7.018;2023-06-24T13:41:56;2.40;;;2.20;;
39098;SDS011;24844;52.380;7.018;2023-06-24T13:44:22;4.82;;;2.33;;
39098;SDS011;24844;52.380;7.018;2023-06-24T13:46:48;3.20;;;2.30;;
39098;SDS011;24844;52.380;7.018;2023-06-24T13:49:15;4.90;;;2.42;;
39098;SDS011;24844;52.380;7.018;2023-06-24T13:51:41;3.25;;;2.50;;
39098;SDS011;24844;52.380;7.018;2023-06-24T13:54:07;5.35;;;2.83;;
39098;SDS011;24844;52.380;7.018;2023-06-24T13:56:33;2.85;;;2.22;;
39098;SDS011;24844;52.380;7.018;2023-06-24T13:58:59;3.15;;;2.42;;
39098;SDS011;24844;52.380;7.018;2023-06-24T14:01:25;5.20;;;2.70;;
39098;SDS011;24844;52.380;7.018;2023-06-24T14:03:53;3.40;;;2.10;;
39098;SDS011;24844;52.380;7.018;2023-06-24T14:06:20;5.93;;;2.70;;
39098;SDS011;24844;52.380;7.018;2023-06-24T14:08:47;3.55;;;2.50;;
39098;SDS011;24844;52.380;7.018;2023-06-24T14:11:13;2.85;;;2.65;;
39098;SDS011;24844;52.380;7.018;2023-06-24T14:13:39;2.85;;;2.42;;
39098;SDS011;24844;52.380;7.018;2023-06-24T14:16:05;2.67;;;2.05;;
39098;SDS011;24844;52.380;7.018;2023-06-24T14:18:31;4.53;;;2.70;;
39098;SDS011;24844;52.380;7.018;2023-06-24T14:21:01;4.03;;;3.00;;
39098;SDS011;24844;52.380;7.018;2023-06-24T14:23:28;5.03;;;3.03;;
39098;SDS011;24844;52.380;7.018;2023-06-24T14:25:54;4.00;;;2.50;;
39098;SDS011;24844;52.380;7.018;2023-06-24T14:28:20;3.13;;;2.60;;
39098;SDS011;24844;52.380;7.018;2023-06-24T14:30:46;4.88;;;2.33;;
39098;SDS011;24844;52.380;7.018;2023-06-24T14:33:12;2.65;;;2.08;;
39098;SDS011;24844;52.380;7.018;2023-06-24T14:35:38;3.83;;;2.45;;
39098;SDS011;24844;52.380;7.018;2023-06-24T14:38:04;3.15;;;2.75;;
39098;SDS011;24844;52.380;7.018;2023-06-24T14:40:29;3.53;;;3.05;;
39098;SDS011;24844;52.380;7.018;2023-06-24T14:42:56;3.25;;;2.83;;
39098;SDS011;24844;52.380;7.018;2023-06-24T14:45:21;4.65;;;2.50;;
39098;SDS011;24844;52.380;7.018;2023-06-24T14:47:47;3.63;;;2.38;;
39098;SDS011;24844;52.380;7.018;2023-06-24T14:50:13;6.10;;;2.88;;
39098;SDS011;24844;52.380;7.018;2023-06-24T14:52:39;2.83;;;2.40;;
39098;SDS011;24844;52.380;7.018;2023-06-24T14:55:04;4.32;;;2.70;;
39098;SDS011;24844;52.380;7.018;2023-06-24T14:57:31;4.07;;;2.42;;